Great Neck, NY

10:08 AM EST on December 27, 2014 (GMT -0500)
New Hyde Park | Change Station
CLOSE
Current Station
Personal Weather Station
Location: Garden City, NY
Elevation: 108 ft
Nearby Weather Stations

Elev 108 ft 40.76 °N, 73.67 °W | Updated 7 minutes ago

Partly Cloudy
Partly Cloudy
48.4 °F
Feels Like 48 °F
N
0.0
Wind Variable Wind from West
Gusts 2.0 mph

Today
High -- | Low -- °F
--% Chance of Precip.
Yesterday
High -- | Low -- °F
Precip. -- in
7:18 AM 4:34 PM
Waxing Crescent, 37% visible
Pressure 30.27 in
Visibility 10.0 miles
Clouds Scattered Clouds 20000 ft
Mostly Cloudy 25000 ft
Windchill 48 °F
Dew Point 35 °F
Humidity 61%
Rainfall 0.00 in
Snow Depth Not available.
UV 1 out of 12
Pollen .10 out of 12
Air Quality Not available.
Flu Activity Not available.
METAR KLGA 271451Z 32003KT 10SM SCT200 BKN250 09/00 A3026 RMK AO2 SLP248 T00890000 51010 $

More Conditions Fewer Conditions

Pressure 30.27 in
Visibility 10.0 miles
Clouds Scattered Clouds 20000 ft
Mostly Cloudy 25000 ft
Windchill 48 °F
Dew Point 35 °F
Humidity 61%
Rainfall 0.00 in
Snow Depth Not available.
UV 1 out of 12
Pollen .10 out of 12
Air Quality Not available.
Flu Activity Not available.
METAR KLGA 271451Z 32003KT 10SM SCT200 BKN250 09/00 A3026 RMK AO2 SLP248 T00890000 51010 $

More Conditions Fewer Conditions

10-Day Weather Forecast

Almanac

Astronomy

Dec. 27, 2014 Rise Set
Actual Time
Civil Twilight
Nautical Twilight
Astronomical Twilight
Moon
Length of Visible Light
Length of Day
Tomorrow will be .
, % of the Moon is Illuminated

Today's Extremes

State Highs State Lows

Community

WunderPhotos

Upload Photos

1,780,923 photos uploaded!

WunderBlogs® & News

Nearby

Air Quality

  Air Quality AQ Index Pollutant
Not available.

Snow Depth

Station Depth Elevation

Earthquake Activity

City Distance Mag. Time & Date
Minimum magnitude displayed is 2.5.

Coastal Water Temperatures

Place Temperature

Nearby Weather Stations